Terminal Aerodrome Forecast
Issued by NWS

Home | Current Version | Previous Version | Graphics & Text | Print | Product List | Glossary On
Versions: 1 2 3 4 5 6 7 8 9 10 11 12 13 14 15 16
000
FTUS43 KMPX 271100
TAFAXN
TAF
KAXN 271139Z 2712/2812 32010KT P6SM BKN012
     FM271300 32010KT P6SM SCT015
     FM271800 27008KT P6SM SCT050
     FM280000 25006KT P6SM SCT025 BKN100
     FM280900 34006KT P6SM SCT020 OVC040=

USA.gov is the U.S. government's official web portal to all federal, state and local government web resources and services.